sensor_id;sensor_type;location;lat;lon;timestamp;pressure;altitude;pressure_sealevel;temperature;humidity
7335;BME280;3708;42.632;23.378;2023-08-17T00:00:27;94450.13;;;25.48;51.62
7335;BME280;3708;42.632;23.378;2023-08-17T00:02:53;94448.84;;;25.56;51.31
7335;BME280;3708;42.632;23.378;2023-08-17T00:05:20;94453.06;;;25.57;50.97
7335;BME280;3708;42.632;23.378;2023-08-17T00:07:47;94456.63;;;25.50;51.10
7335;BME280;3708;42.632;23.378;2023-08-17T00:10:14;94451.66;;;25.49;51.08
7335;BME280;3708;42.632;23.378;2023-08-17T00:12:42;94457.53;;;25.40;50.98
7335;BME280;3708;42.632;23.378;2023-08-17T00:15:09;94457.91;;;25.39;51.24
7335;BME280;3708;42.632;23.378;2023-08-17T00:17:38;94453.03;;;25.34;51.09
7335;BME280;3708;42.632;23.378;2023-08-17T00:20:06;94443.63;;;25.22;50.64
7335;BME280;3708;42.632;23.378;2023-08-17T00:22:35;94454.44;;;25.15;50.35
7335;BME280;3708;42.632;23.378;2023-08-17T00:25:02;94447.94;;;25.16;50.00
7335;BME280;3708;42.632;23.378;2023-08-17T00:27:31;94449.75;;;25.23;50.00
7335;BME280;3708;42.632;23.378;2023-08-17T00:29:58;94451.59;;;25.26;49.71
7335;BME280;3708;42.632;23.378;2023-08-17T00:32:25;94450.56;;;25.20;49.38
7335;BME280;3708;42.632;23.378;2023-08-17T00:34:53;94444.41;;;25.19;49.14
7335;BME280;3708;42.632;23.378;2023-08-17T00:37:21;94451.81;;;25.12;49.21
7335;BME280;3708;42.632;23.378;2023-08-17T00:39:47;94454.34;;;24.95;48.96
7335;BME280;3708;42.632;23.378;2023-08-17T00:42:14;94452.38;;;24.99;49.22
7335;BME280;3708;42.632;23.378;2023-08-17T00:44:41;94446.88;;;24.83;48.66
7335;BME280;3708;42.632;23.378;2023-08-17T00:47:08;94454.31;;;24.69;48.87
7335;BME280;3708;42.632;23.378;2023-08-17T00:49:35;94444.75;;;24.38;49.46
7335;BME280;3708;42.632;23.378;2023-08-17T00:52:03;94444.88;;;24.27;49.63
7335;BME280;3708;42.632;23.378;2023-08-17T00:54:31;94453.50;;;24.08;49.67
7335;BME280;3708;42.632;23.378;2023-08-17T00:56:58;94451.59;;;24.08;49.60
7335;BME280;3708;42.632;23.378;2023-08-17T00:59:27;94438.94;;;24.09;49.08
7335;BME280;3708;42.632;23.378;2023-08-17T01:01:57;94438.63;;;24.03;49.39
7335;BME280;3708;42.632;23.378;2023-08-17T01:04:29;94428.81;;;23.90;49.38
7335;BME280;3708;42.632;23.378;2023-08-17T01:06:56;94435.28;;;23.96;48.70
7335;BME280;3708;42.632;23.378;2023-08-17T01:09:24;94435.34;;;23.89;48.90
7335;BME280;3708;42.632;23.378;2023-08-17T01:11:57;94441.41;;;23.93;48.90
7335;BME280;3708;42.632;23.378;2023-08-17T01:14:30;94436.81;;;23.93;48.71
7335;BME280;3708;42.632;23.378;2023-08-17T01:17:04;94441.09;;;23.84;48.90
7335;BME280;3708;42.632;23.378;2023-08-17T01:19:33;94442.28;;;23.83;48.77
7335;BME280;3708;42.632;23.378;2023-08-17T01:22:03;94437.56;;;23.94;48.64
7335;BME280;3708;42.632;23.378;2023-08-17T01:24:33;94437.19;;;23.92;48.44
7335;BME280;3708;42.632;23.378;2023-08-17T01:27:00;94439.09;;;23.95;48.46
7335;BME280;3708;42.632;23.378;2023-08-17T01:29:27;94433.44;;;23.86;48.59
7335;BME280;3708;42.632;23.378;2023-08-17T01:31:58;94421.88;;;23.96;48.58
7335;BME280;3708;42.632;23.378;2023-08-17T01:34:29;94432.94;;;23.98;48.04
7335;BME280;3708;42.632;23.378;2023-08-17T01:37:00;94424.56;;;23.96;47.97
7335;BME280;3708;42.632;23.378;2023-08-17T01:39:34;94424.28;;;23.83;47.88
7335;BME280;3708;42.632;23.378;2023-08-17T01:42:03;94425.63;;;23.65;48.40
7335;BME280;3708;42.632;23.378;2023-08-17T01:44:31;94441.28;;;23.66;48.25
7335;BME280;3708;42.632;23.378;2023-08-17T01:46:59;94431.63;;;23.76;48.21
7335;BME280;3708;42.632;23.378;2023-08-17T01:49:25;94438.13;;;23.75;47.85
7335;BME280;3708;42.632;23.378;2023-08-17T01:51:52;94435.50;;;23.71;47.58
7335;BME280;3708;42.632;23.378;2023-08-17T01:54:19;94435.81;;;23.77;47.69
7335;BME280;3708;42.632;23.378;2023-08-17T01:56:47;94436.16;;;23.82;47.57
7335;BME280;3708;42.632;23.378;2023-08-17T01:59:14;94422.34;;;23.87;47.30
7335;BME280;3708;42.632;23.378;2023-08-17T02:01:41;94429.09;;;23.99;47.18
7335;BME280;3708;42.632;23.378;2023-08-17T02:04:08;94432.13;;;24.01;46.58
7335;BME280;3708;42.632;23.378;2023-08-17T02:06:35;94427.72;;;23.84;47.03
7335;BME280;3708;42.632;23.378;2023-08-17T02:09:02;94433.09;;;23.84;46.86
7335;BME280;3708;42.632;23.378;2023-08-17T02:11:29;94426.13;;;23.90;46.74
7335;BME280;3708;42.632;23.378;2023-08-17T02:13:58;94437.91;;;23.59;46.99
7335;BME280;3708;42.632;23.378;2023-08-17T02:16:25;94425.47;;;23.79;46.81
7335;BME280;3708;42.632;23.378;2023-08-17T02:18:51;94434.56;;;23.88;46.90
7335;BME280;3708;42.632;23.378;2023-08-17T02:21:18;94420.88;;;23.83;46.99
7335;BME280;3708;42.632;23.378;2023-08-17T02:23:45;94417.88;;;23.77;46.81
7335;BME280;3708;42.632;23.378;2023-08-17T02:26:12;94420.22;;;23.72;47.33
7335;BME280;3708;42.632;23.378;2023-08-17T02:28:39;94428.59;;;23.74;47.20
7335;BME280;3708;42.632;23.378;2023-08-17T02:31:07;94422.44;;;23.80;47.10
7335;BME280;3708;42.632;23.378;2023-08-17T02:33:34;94419.09;;;23.69;47.01
7335;BME280;3708;42.632;23.378;2023-08-17T02:36:02;94420.91;;;23.38;47.51
7335;BME280;3708;42.632;23.378;2023-08-17T02:38:29;94416.63;;;23.44;47.61
7335;BME280;3708;42.632;23.378;2023-08-17T02:40:56;94423.78;;;23.58;47.32
7335;BME280;3708;42.632;23.378;2023-08-17T02:43:23;94418.44;;;23.58;47.36
7335;BME280;3708;42.632;23.378;2023-08-17T02:45:50;94415.69;;;23.65;47.19
7335;BME280;3708;42.632;23.378;2023-08-17T02:48:18;94418.03;;;23.60;46.91
7335;BME280;3708;42.632;23.378;2023-08-17T02:50:45;94410.31;;;23.69;46.89
7335;BME280;3708;42.632;23.378;2023-08-17T02:53:12;94419.41;;;23.75;46.61
7335;BME280;3708;42.632;23.378;2023-08-17T02:55:39;94419.72;;;23.84;46.64
7335;BME280;3708;42.632;23.378;2023-08-17T02:58:06;94409.72;;;23.88;46.44
7335;BME280;3708;42.632;23.378;2023-08-17T03:00:33;94405.44;;;23.97;46.07
7335;BME280;3708;42.632;23.378;2023-08-17T03:02:59;94410.72;;;24.01;45.42
7335;BME280;3708;42.632;23.378;2023-08-17T03:05:29;94413.03;;;23.99;45.24
7335;BME280;3708;42.632;23.378;2023-08-17T03:07:56;94409.28;;;23.93;45.58
7335;BME280;3708;42.632;23.378;2023-08-17T03:10:23;94404.84;;;23.83;45.73
7335;BME280;3708;42.632;23.378;2023-08-17T03:12:50;94411.00;;;23.76;46.07
7335;BME280;3708;42.632;23.378;2023-08-17T03:15:17;94408.34;;;23.35;46.68
7335;BME280;3708;42.632;23.378;2023-08-17T03:17:44;94408.53;;;23.55;46.49
7335;BME280;3708;42.632;23.378;2023-08-17T03:20:11;94410.88;;;23.49;46.62
7335;BME280;3708;42.632;23.378;2023-08-17T03:22:39;94410.09;;;23.53;46.60
7335;BME280;3708;42.632;23.378;2023-08-17T03:25:07;94418.16;;;23.45;46.67
7335;BME280;3708;42.632;23.378;2023-08-17T03:27:34;94417.38;;;23.48;46.69
7335;BME280;3708;42.632;23.378;2023-08-17T03:30:01;94419.72;;;23.43;46.88
7335;BME280;3708;42.632;23.378;2023-08-17T03:32:28;94412.00;;;23.04;47.81
7335;BME280;3708;42.632;23.378;2023-08-17T03:34:55;94420.09;;;22.90;48.33
7335;BME280;3708;42.632;23.378;2023-08-17T03:37:22;94417.19;;;22.70;48.56
7335;BME280;3708;42.632;23.378;2023-08-17T03:39:51;94412.56;;;22.71;48.50
7335;BME280;3708;42.632;23.378;2023-08-17T03:42:18;94418.69;;;22.75;48.24
7335;BME280;3708;42.632;23.378;2023-08-17T03:44:44;94419.41;;;22.79;47.88
7335;BME280;3708;42.632;23.378;2023-08-17T03:47:11;94427.06;;;22.77;47.86
7335;BME280;3708;42.632;23.378;2023-08-17T03:49:38;94425.50;;;22.80;47.60
7335;BME280;3708;42.632;23.378;2023-08-17T03:52:05;94418.72;;;22.64;47.78
7335;BME280;3708;42.632;23.378;2023-08-17T03:54:35;94419.13;;;22.66;47.96
7335;BME280;3708;42.632;23.378;2023-08-17T03:57:04;94425.53;;;22.76;47.64
7335;BME280;3708;42.632;23.378;2023-08-17T03:59:30;94429.38;;;22.75;47.64
7335;BME280;3708;42.632;23.378;2023-08-17T04:01:58;94428.50;;;22.92;47.35
7335;BME280;3708;42.632;23.378;2023-08-17T04:04:24;94432.34;;;22.88;47.14
7335;BME280;3708;42.632;23.378;2023-08-17T04:06:51;94429.16;;;23.03;46.86
7335;BME280;3708;42.632;23.378;2023-08-17T04:09:18;94425.66;;;23.10;46.65
7335;BME280;3708;42.632;23.378;2023-08-17T04:11:45;94434.78;;;23.19;46.50
7335;BME280;3708;42.632;23.378;2023-08-17T04:14:13;94427.13;;;23.21;46.18
7335;BME280;3708;42.632;23.378;2023-08-17T04:16:40;94430.91;;;23.24;46.27
7335;BME280;3708;42.632;23.378;2023-08-17T04:19:08;94430.00;;;23.44;45.66
7335;BME280;3708;42.632;23.378;2023-08-17T04:21:35;94429.44;;;23.64;45.15
7335;BME280;3708;42.632;23.378;2023-08-17T04:24:02;94433.91;;;23.81;44.82
7335;BME280;3708;42.632;23.378;2023-08-17T04:26:28;94426.94;;;23.87;44.44
7335;BME280;3708;42.632;23.378;2023-08-17T04:28:55;94430.69;;;23.93;44.03
7335;BME280;3708;42.632;23.378;2023-08-17T04:31:25;94433.13;;;23.80;43.92
7335;BME280;3708;42.632;23.378;2023-08-17T04:33:56;94429.97;;;23.89;43.68
7335;BME280;3708;42.632;23.378;2023-08-17T04:36:23;94434.25;;;23.83;43.39
7335;BME280;3708;42.632;23.378;2023-08-17T04:38:50;94432.13;;;24.01;43.43
7335;BME280;3708;42.632;23.378;2023-08-17T04:41:17;94430.53;;;24.10;43.18
7335;BME280;3708;42.632;23.378;2023-08-17T04:43:44;94427.03;;;24.17;43.23
7335;BME280;3708;42.632;23.378;2023-08-17T04:46:12;94429.59;;;24.24;43.91
7335;BME280;3708;42.632;23.378;2023-08-17T04:48:40;94420.38;;;24.59;45.77
7335;BME280;3708;42.632;23.378;2023-08-17T04:51:07;94421.03;;;24.96;44.14
7335;BME280;3708;42.632;23.378;2023-08-17T04:53:33;94422.94;;;25.23;43.11
7335;BME280;3708;42.632;23.378;2023-08-17T04:56:02;94417.16;;;25.51;42.22
7335;BME280;3708;42.632;23.378;2023-08-17T04:58:29;94422.41;;;25.78;42.02
7335;BME280;3708;42.632;23.378;2023-08-17T05:00:56;94421.81;;;25.90;41.38
7335;BME280;3708;42.632;23.378;2023-08-17T05:03:23;94418.09;;;26.26;41.15
7335;BME280;3708;42.632;23.378;2023-08-17T05:05:51;94412.97;;;26.52;40.17
7335;BME280;3708;42.632;23.378;2023-08-17T05:08:18;94414.47;;;26.53;39.54
7335;BME280;3708;42.632;23.378;2023-08-17T05:10:47;94414.31;;;26.60;39.99
7335;BME280;3708;42.632;23.378;2023-08-17T05:13:14;94422.84;;;26.74;40.08
7335;BME280;3708;42.632;23.378;2023-08-17T05:15:41;94424.91;;;26.67;39.52
7335;BME280;3708;42.632;23.378;2023-08-17T05:18:08;94423.41;;;26.66;39.67
7335;BME280;3708;42.632;23.378;2023-08-17T05:20:35;94422.28;;;26.83;39.18
7335;BME280;3708;42.632;23.378;2023-08-17T05:23:03;94418.44;;;26.64;39.12
7335;BME280;3708;42.632;23.378;2023-08-17T05:25:30;94417.53;;;26.90;39.50
7335;BME280;3708;42.632;23.378;2023-08-17T05:27:57;94416.44;;;27.04;38.62
7335;BME280;3708;42.632;23.378;2023-08-17T05:30:24;94422.44;;;27.28;39.32
7335;BME280;3708;42.632;23.378;2023-08-17T05:32:51;94422.78;;;27.62;38.65
7335;BME280;3708;42.632;23.378;2023-08-17T05:35:18;94421.28;;;27.89;38.07
7335;BME280;3708;42.632;23.378;2023-08-17T05:37:44;94425.94;;;28.18;40.35
7335;BME280;3708;42.632;23.378;2023-08-17T05:40:13;94421.16;;;28.38;37.76
7335;BME280;3708;42.632;23.378;2023-08-17T05:42:40;94427.09;;;28.45;37.06
7335;BME280;3708;42.632;23.378;2023-08-17T05:45:08;94424.59;;;28.38;37.09
7335;BME280;3708;42.632;23.378;2023-08-17T05:47:35;94429.91;;;28.42;37.51
7335;BME280;3708;42.632;23.378;2023-08-17T05:50:02;94432.81;;;28.47;37.68
7335;BME280;3708;42.632;23.378;2023-08-17T05:52:29;94431.69;;;28.61;37.39
7335;BME280;3708;42.632;23.378;2023-08-17T05:54:55;94435.28;;;28.42;36.86
7335;BME280;3708;42.632;23.378;2023-08-17T05:57:24;94436.28;;;28.19;37.57
7335;BME280;3708;42.632;23.378;2023-08-17T05:59:51;94436.88;;;28.27;37.35
7335;BME280;3708;42.632;23.378;2023-08-17T06:02:18;94435.44;;;28.22;37.79
7335;BME280;3708;42.632;23.378;2023-08-17T06:04:44;94435.00;;;28.24;37.81
7335;BME280;3708;42.632;23.378;2023-08-17T06:07:11;94439.22;;;28.25;38.31
7335;BME280;3708;42.632;23.378;2023-08-17T06:09:38;94436.31;;;28.32;38.71
7335;BME280;3708;42.632;23.378;2023-08-17T06:12:05;94445.59;;;28.31;39.33
7335;BME280;3708;42.632;23.378;2023-08-17T06:14:34;94443.72;;;28.15;39.73
7335;BME280;3708;42.632;23.378;2023-08-17T06:17:01;94441.94;;;28.25;39.52
7335;BME280;3708;42.632;23.378;2023-08-17T06:19:27;94440.13;;;28.06;39.84
7335;BME280;3708;42.632;23.378;2023-08-17T06:21:54;94437.72;;;27.79;40.38
7335;BME280;3708;42.632;23.378;2023-08-17T06:24:21;94434.25;;;27.94;40.23
7335;BME280;3708;42.632;23.378;2023-08-17T06:26:48;94434.25;;;28.23;39.61
7335;BME280;3708;42.632;23.378;2023-08-17T06:29:15;94431.97;;;28.50;39.10
7335;BME280;3708;42.632;23.378;2023-08-17T06:31:43;94435.25;;;28.71;38.98
7335;BME280;3708;42.632;23.378;2023-08-17T06:34:10;94439.69;;;28.77;38.69
7335;BME280;3708;42.632;23.378;2023-08-17T06:36:38;94441.84;;;28.82;38.87
7335;BME280;3708;42.632;23.378;2023-08-17T06:39:05;94443.47;;;28.80;39.35
7335;BME280;3708;42.632;23.378;2023-08-17T06:41:32;94451.03;;;28.97;38.89
7335;BME280;3708;42.632;23.378;2023-08-17T06:43:59;94444.69;;;29.16;38.90
7335;BME280;3708;42.632;23.378;2023-08-17T06:46:25;94442.31;;;29.44;39.02
7335;BME280;3708;42.632;23.378;2023-08-17T06:48:55;94448.66;;;29.50;39.82
7335;BME280;3708;42.632;23.378;2023-08-17T06:51:23;94448.97;;;29.52;39.99
7335;BME280;3708;42.632;23.378;2023-08-17T06:53:50;94436.84;;;29.69;39.24
7335;BME280;3708;42.632;23.378;2023-08-17T06:56:16;94445.19;;;29.62;39.53
7335;BME280;3708;42.632;23.378;2023-08-17T06:58:43;94443.56;;;29.77;38.87
7335;BME280;3708;42.632;23.378;2023-08-17T07:01:10;94446.97;;;29.90;38.68
7335;BME280;3708;42.632;23.378;2023-08-17T07:03:37;94447.88;;;30.08;38.06
7335;BME280;3708;42.632;23.378;2023-08-17T07:06:06;94446.47;;;29.57;38.36
7335;BME280;3708;42.632;23.378;2023-08-17T07:08:33;94447.03;;;29.65;37.74
7335;BME280;3708;42.632;23.378;2023-08-17T07:11:00;94438.91;;;29.77;37.05
7335;BME280;3708;42.632;23.378;2023-08-17T07:13:26;94445.63;;;29.60;36.66
7335;BME280;3708;42.632;23.378;2023-08-17T07:15:53;94445.97;;;29.96;35.74
7335;BME280;3708;42.632;23.378;2023-08-17T07:18:20;94445.31;;;30.05;35.16
7335;BME280;3708;42.632;23.378;2023-08-17T07:20:47;94436.31;;;30.08;35.50
7335;BME280;3708;42.632;23.378;2023-08-17T07:23:16;94447.03;;;29.65;36.38
7335;BME280;3708;42.632;23.378;2023-08-17T07:25:43;94441.59;;;29.77;35.53
7335;BME280;3708;42.632;23.378;2023-08-17T07:28:10;94439.75;;;30.08;35.14
7335;BME280;3708;42.632;23.378;2023-08-17T07:30:37;94446.56;;;30.47;35.32
7335;BME280;3708;42.632;23.378;2023-08-17T07:33:04;94444.66;;;30.57;34.46
7335;BME280;3708;42.632;23.378;2023-08-17T07:35:31;94444.78;;;30.53;33.65
7335;BME280;3708;42.632;23.378;2023-08-17T07:37:58;94440.59;;;30.83;32.89
7335;BME280;3708;42.632;23.378;2023-08-17T07:40:26;94439.19;;;31.00;32.71
7335;BME280;3708;42.632;23.378;2023-08-17T07:42:53;94434.97;;;31.39;32.55
7335;BME280;3708;42.632;23.378;2023-08-17T07:45:20;94437.75;;;31.57;32.37
7335;BME280;3708;42.632;23.378;2023-08-17T07:47:47;94436.53;;;31.49;33.21
7335;BME280;3708;42.632;23.378;2023-08-17T07:50:13;94438.97;;;31.25;33.48
7335;BME280;3708;42.632;23.378;2023-08-17T07:52:40;94438.94;;;31.47;32.77
7335;BME280;3708;42.632;23.378;2023-08-17T07:55:07;94437.25;;;31.40;33.15
7335;BME280;3708;42.632;23.378;2023-08-17T07:57:37;94430.09;;;31.65;33.02
7335;BME280;3708;42.632;23.378;2023-08-17T08:00:05;94435.06;;;31.75;33.14
7335;BME280;3708;42.632;23.378;2023-08-17T08:02:32;94426.50;;;31.77;32.77
7335;BME280;3708;42.632;23.378;2023-08-17T08:04:59;94430.75;;;32.14;32.24
7335;BME280;3708;42.632;23.378;2023-08-17T08:07:26;94432.84;;;32.46;31.68
7335;BME280;3708;42.632;23.378;2023-08-17T08:09:53;94423.81;;;32.58;31.92
7335;BME280;3708;42.632;23.378;2023-08-17T08:12:20;94435.06;;;32.75;31.47
7335;BME280;3708;42.632;23.378;2023-08-17T08:14:48;94428.19;;;32.56;31.02
7335;BME280;3708;42.632;23.378;2023-08-17T08:17:16;94419.16;;;32.50;31.82
7335;BME280;3708;42.632;23.378;2023-08-17T08:19:44;94426.16;;;32.83;31.75
7335;BME280;3708;42.632;23.378;2023-08-17T08:22:11;94420.81;;;33.07;31.65
7335;BME280;3708;42.632;23.378;2023-08-17T08:24:38;94419.81;;;32.86;31.67
7335;BME280;3708;42.632;23.378;2023-08-17T08:27:06;94424.88;;;32.61;31.73
7335;BME280;3708;42.632;23.378;2023-08-17T08:29:33;94427.78;;;32.90;30.78
7335;BME280;3708;42.632;23.378;2023-08-17T08:32:03;94415.44;;;32.89;30.41
7335;BME280;3708;42.632;23.378;2023-08-17T08:34:30;94410.47;;;32.87;30.85
7335;BME280;3708;42.632;23.378;2023-08-17T08:36:57;94418.38;;;33.18;30.29
7335;BME280;3708;42.632;23.378;2023-08-17T08:39:25;94418.47;;;33.24;30.18
7335;BME280;3708;42.632;23.378;2023-08-17T08:41:52;94415.88;;;33.38;30.11
7335;BME280;3708;42.632;23.378;2023-08-17T08:44:19;94412.06;;;33.45;30.32
7335;BME280;3708;42.632;23.378;2023-08-17T08:46:47;94406.75;;;33.74;29.64
7335;BME280;3708;42.632;23.378;2023-08-17T08:49:19;94405.03;;;33.86;28.93
7335;BME280;3708;42.632;23.378;2023-08-17T08:51:49;94414.16;;;33.73;29.45
7335;BME280;3708;42.632;23.378;2023-08-17T08:54:20;94402.94;;;34.04;29.30
7335;BME280;3708;42.632;23.378;2023-08-17T08:56:52;94400.41;;;34.01;29.10
7335;BME280;3708;42.632;23.378;2023-08-17T08:59:21;94401.41;;;34.27;28.10
7335;BME280;3708;42.632;23.378;2023-08-17T09:01:48;94394.16;;;33.86;29.07
7335;BME280;3708;42.632;23.378;2023-08-17T09:04:17;94399.22;;;33.93;29.14
7335;BME280;3708;42.632;23.378;2023-08-17T09:06:45;94389.19;;;34.22;28.84
7335;BME280;3708;42.632;23.378;2023-08-17T09:09:14;94381.19;;;34.57;28.74
7335;BME280;3708;42.632;23.378;2023-08-17T09:11:42;94387.38;;;34.72;28.56
7335;BME280;3708;42.632;23.378;2023-08-17T09:14:09;94382.25;;;34.36;29.21
7335;BME280;3708;42.632;23.378;2023-08-17T09:16:36;94376.38;;;34.67;28.71
7335;BME280;3708;42.632;23.378;2023-08-17T09:19:03;94376.25;;;34.32;29.01
7335;BME280;3708;42.632;23.378;2023-08-17T09:21:33;94371.34;;;34.07;29.53
7335;BME280;3708;42.632;23.378;2023-08-17T09:24:00;94373.16;;;34.39;28.64
7335;BME280;3708;42.632;23.378;2023-08-17T09:26:30;94370.38;;;34.48;28.19
7335;BME280;3708;42.632;23.378;2023-08-17T09:28:57;94360.53;;;34.65;28.52
7335;BME280;3708;42.632;23.378;2023-08-17T09:31:25;94375.03;;;34.91;27.86
7335;BME280;3708;42.632;23.378;2023-08-17T09:33:52;94366.94;;;35.11;27.34
7335;BME280;3708;42.632;23.378;2023-08-17T09:36:23;94364.25;;;35.32;27.35
7335;BME280;3708;42.632;23.378;2023-08-17T09:38:52;94361.59;;;35.17;26.00
7335;BME280;3708;42.632;23.378;2023-08-17T09:41:19;94359.53;;;34.97;25.86
7335;BME280;3708;42.632;23.378;2023-08-17T09:43:46;94351.03;;;35.04;25.83
7335;BME280;3708;42.632;23.378;2023-08-17T09:46:14;94336.44;;;35.07;25.85
7335;BME280;3708;42.632;23.378;2023-08-17T09:48:43;94356.47;;;35.24;25.55
7335;BME280;3708;42.632;23.378;2023-08-17T09:51:09;94342.28;;;35.00;25.71
7335;BME280;3708;42.632;23.378;2023-08-17T09:53:36;94338.09;;;35.40;25.60
7335;BME280;3708;42.632;23.378;2023-08-17T09:56:06;94331.06;;;35.68;25.66
7335;BME280;3708;42.632;23.378;2023-08-17T09:58:36;94334.44;;;35.83;25.73
7335;BME280;3708;42.632;23.378;2023-08-17T10:01:04;94338.19;;;35.85;24.90
7335;BME280;3708;42.632;23.378;2023-08-17T10:03:33;94332.75;;;36.06;24.40
7335;BME280;3708;42.632;23.378;2023-08-17T10:06:04;94331.59;;;35.72;25.41
7335;BME280;3708;42.632;23.378;2023-08-17T10:08:33;94341.41;;;35.84;24.32
7335;BME280;3708;42.632;23.378;2023-08-17T10:11:06;94331.00;;;35.62;24.72
7335;BME280;3708;42.632;23.378;2023-08-17T10:13:39;94337.25;;;35.48;25.29
7335;BME280;3708;42.632;23.378;2023-08-17T10:16:11;94338.97;;;35.66;25.22
7335;BME280;3708;42.632;23.378;2023-08-17T10:18:50;94327.66;;;36.19;24.51
7335;BME280;3708;42.632;23.378;2023-08-17T10:21:23;94333.31;;;36.41;23.87
7335;BME280;3708;42.632;23.378;2023-08-17T10:23:53;94326.50;;;36.25;24.12
7335;BME280;3708;42.632;23.378;2023-08-17T10:26:21;94329.91;;;36.46;23.55
7335;BME280;3708;42.632;23.378;2023-08-17T10:28:49;94328.97;;;36.49;23.67
7335;BME280;3708;42.632;23.378;2023-08-17T10:31:17;94326.88;;;36.69;23.13
7335;BME280;3708;42.632;23.378;2023-08-17T10:33:44;94324.59;;;36.94;22.47
7335;BME280;3708;42.632;23.378;2023-08-17T10:36:13;94327.22;;;36.51;23.18
7335;BME280;3708;42.632;23.378;2023-08-17T10:38:41;94319.50;;;36.19;23.20
7335;BME280;3708;42.632;23.378;2023-08-17T10:41:10;94311.72;;;36.37;23.39
7335;BME280;3708;42.632;23.378;2023-08-17T10:43:58;94320.13;;;36.65;23.30
7335;BME280;3708;42.632;23.378;2023-08-17T10:46:33;94310.84;;;36.83;22.68
7335;BME280;3708;42.632;23.378;2023-08-17T10:49:04;94304.81;;;37.10;22.48
7335;BME280;3708;42.632;23.378;2023-08-17T10:51:32;94308.88;;;37.25;22.07
7335;BME280;3708;42.632;23.378;2023-08-17T10:54:02;94317.25;;;36.80;22.56
7335;BME280;3708;42.632;23.378;2023-08-17T10:56:29;94311.13;;;37.27;21.71
7335;BME280;3708;42.632;23.378;2023-08-17T10:59:01;94311.09;;;37.21;21.32
7335;BME280;3708;42.632;23.378;2023-08-17T11:01:32;94306.81;;;37.57;21.97
7335;BME280;3708;42.632;23.378;2023-08-17T11:04:10;94300.28;;;38.13;21.02
7335;BME280;3708;42.632;23.378;2023-08-17T11:06:38;94298.09;;;38.40;20.53
7335;BME280;3708;42.632;23.378;2023-08-17T11:09:07;94305.78;;;38.41;20.74
7335;BME280;3708;42.632;23.378;2023-08-17T11:11:34;94296.59;;;38.50;20.91
7335;BME280;3708;42.632;23.378;2023-08-17T11:14:03;94294.34;;;38.87;20.50
7335;BME280;3708;42.632;23.378;2023-08-17T11:16:30;94286.63;;;38.97;19.96
7335;BME280;3708;42.632;23.378;2023-08-17T11:19:00;94285.09;;;39.18;19.97
7335;BME280;3708;42.632;23.378;2023-08-17T11:21:27;94284.50;;;39.41;19.94
7335;BME280;3708;42.632;23.378;2023-08-17T11:23:56;94282.47;;;39.53;20.04
7335;BME280;3708;42.632;23.378;2023-08-17T11:26:24;94288.97;;;39.50;19.75
7335;BME280;3708;42.632;23.378;2023-08-17T11:28:51;94285.59;;;39.16;20.19
7335;BME280;3708;42.632;23.378;2023-08-17T11:31:19;94283.16;;;38.30;20.65
7335;BME280;3708;42.632;23.378;2023-08-17T11:33:46;94284.63;;;38.31;20.61
7335;BME280;3708;42.632;23.378;2023-08-17T11:36:13;94279.47;;;37.57;21.35
7335;BME280;3708;42.632;23.378;2023-08-17T11:38:41;94283.84;;;37.97;21.53
7335;BME280;3708;42.632;23.378;2023-08-17T11:41:09;94280.66;;;38.37;22.32
7335;BME280;3708;42.632;23.378;2023-08-17T11:43:36;94268.94;;;38.09;23.11
7335;BME280;3708;42.632;23.378;2023-08-17T11:46:04;94267.44;;;37.91;23.11
7335;BME280;3708;42.632;23.378;2023-08-17T11:48:33;94267.59;;;37.71;22.86
7335;BME280;3708;42.632;23.378;2023-08-17T11:51:00;94270.28;;;37.01;24.41
7335;BME280;3708;42.632;23.378;2023-08-17T11:53:33;94263.09;;;37.04;24.37
7335;BME280;3708;42.632;23.378;2023-08-17T11:56:00;94267.84;;;37.14;24.40
7335;BME280;3708;42.632;23.378;2023-08-17T11:58:39;94272.13;;;36.84;24.54
7335;BME280;3708;42.632;23.378;2023-08-17T12:01:09;94272.38;;;36.81;24.53
7335;BME280;3708;42.632;23.378;2023-08-17T12:03:38;94268.25;;;37.44;23.69
7335;BME280;3708;42.632;23.378;2023-08-17T12:06:06;94270.44;;;38.15;23.18
7335;BME280;3708;42.632;23.378;2023-08-17T12:08:33;94263.19;;;39.07;22.01
7335;BME280;3708;42.632;23.378;2023-08-17T12:11:00;94263.22;;;39.70;21.82
7335;BME280;3708;42.632;23.378;2023-08-17T12:13:31;94262.41;;;40.26;21.54
7335;BME280;3708;42.632;23.378;2023-08-17T12:15:59;94257.03;;;40.45;21.10
7335;BME280;3708;42.632;23.378;2023-08-17T12:18:26;94258.53;;;39.53;21.74
7335;BME280;3708;42.632;23.378;2023-08-17T12:20:54;94267.44;;;38.91;22.38
7335;BME280;3708;42.632;23.378;2023-08-17T12:23:21;94251.53;;;38.78;22.77
7335;BME280;3708;42.632;23.378;2023-08-17T12:25:52;94249.47;;;37.79;24.00
7335;BME280;3708;42.632;23.378;2023-08-17T12:28:19;94250.53;;;38.21;23.60
7335;BME280;3708;42.632;23.378;2023-08-17T12:30:46;94252.78;;;38.22;23.79
7335;BME280;3708;42.632;23.378;2023-08-17T12:33:13;94254.31;;;38.29;23.24
7335;BME280;3708;42.632;23.378;2023-08-17T12:35:40;94255.81;;;38.30;23.03
7335;BME280;3708;42.632;23.378;2023-08-17T12:38:10;94253.25;;;37.93;23.65
7335;BME280;3708;42.632;23.378;2023-08-17T12:40:38;94253.44;;;37.67;23.97
7335;BME280;3708;42.632;23.378;2023-08-17T12:43:04;94250.56;;;38.32;23.83
7335;BME280;3708;42.632;23.378;2023-08-17T12:45:31;94245.53;;;38.97;23.45
7335;BME280;3708;42.632;23.378;2023-08-17T12:47:59;94256.00;;;38.87;23.37
7335;BME280;3708;42.632;23.378;2023-08-17T12:50:29;94244.56;;;38.05;23.85
7335;BME280;3708;42.632;23.378;2023-08-17T12:52:55;94256.75;;;37.93;24.71
7335;BME280;3708;42.632;23.378;2023-08-17T12:55:24;94255.81;;;38.41;24.25
7335;BME280;3708;42.632;23.378;2023-08-17T12:57:50;94259.03;;;38.56;23.92
7335;BME280;3708;42.632;23.378;2023-08-17T13:00:17;94252.28;;;38.90;23.98
7335;BME280;3708;42.632;23.378;2023-08-17T13:02:46;94247.56;;;38.02;24.86
7335;BME280;3708;42.632;23.378;2023-08-17T13:05:16;94244.81;;;38.24;24.51
7335;BME280;3708;42.632;23.378;2023-08-17T13:07:43;94253.53;;;38.06;24.79
7335;BME280;3708;42.632;23.378;2023-08-17T13:10:10;94252.78;;;38.00;24.57
7335;BME280;3708;42.632;23.378;2023-08-17T13:12:39;94251.63;;;37.48;25.48